Latest Coastal Weather Observations for Dunalley

IDT60701

Issued at 11:03 pm EST Monday 27 June 2016 (issued every 10 minutes, with the page automatically refreshed every 10 minutes)

About coastal observations | Map of coastal stations | Coastal observations for TAS | Marine services | Other Formats
Station Details ID: 094254 Name: DUNALLEY (STROUD POINT) Lat: -42.90 Lon: 147.79 Height: 12.43 m
Data from the previous 72 hours. | See also: Recent months at Dunalley
Date/Time
EST
Temp
°C
Wind Pressure Rain since
9am
mm
Weather Cloud Vis
km
Sea
Height
m
Swell
Dir  Spd
kts
Gust
kts
hPa Trend Height
m
Period
s
Dir
27/11:00pm 9.8 NNW 9 12 1011.4 - 0.0 - - - - - - -
27/10:30pm 9.0 NNW 6 10 1011.5 - 0.0 - - - - - - -
27/10:00pm 9.5 NNW 8 13 1011.7 - 0.0 - - - - - - -
27/09:30pm 9.3 NNW 9 13 1011.4 - 0.0 - - - - - - -
27/09:00pm 9.6 NW 8 12 1011.7 - 0.0 - - - - - - -
27/08:30pm 8.7 NNW 6 10 1011.9 - 0.0 - - - - - - -
27/08:00pm 8.0 NW 6 8 1011.8 - 0.0 - - - - - - -
27/07:30pm 9.1 NW 10 14 1011.9 - 0.0 - - - - - - -
27/07:00pm 9.4 NW 8 11 1011.9 - 0.0 - - - - - - -
27/06:30pm 8.5 NW 5 6 1011.7 - 0.0 - - - - - - -
27/06:00pm 8.0 NW 6 7 1011.3 - 0.0 - - - - - - -
27/05:30pm 9.3 NW 5 8 1011.2 - 0.0 - - - - - - -
27/05:00pm 10.0 NW 5 8 1010.9 - 0.0 - - - - - - -
27/04:30pm 10.3 NW 6 8 1010.6 - 0.0 - - - - - - -
27/04:00pm 11.0 WNW 10 14 1010.5 - 0.0 - - - - - - -
27/03:30pm 11.9 WNW 8 13 1010.4 - 0.0 - - - - - - -
27/03:00pm 12.2 WNW 9 14 1010.4 - 0.0 - - - - - - -
27/02:30pm 12.3 WNW 10 13 1010.3 - 0.0 - - - - - - -
27/02:00pm 12.2 WNW 9 14 1010.3 - 0.0 - - - - - - -
27/01:30pm 12.3 WNW 11 14 1010.4 - 0.0 - - - - - - -
27/01:00pm 12.0 WNW 9 13 1010.6 - 0.0 - - - - - - -
27/12:30pm 11.9 WNW 9 14 1010.8 - 0.0 - - - - - - -
27/12:00pm 11.7 WNW 10 15 1011.0 - 0.0 - - - - - - -
27/11:30am 11.7 WNW 9 14 1011.4 - 0.0 - - - - - - -
27/11:00am 11.4 NW 9 13 1011.5 - 0.0 - - - - - - -
27/10:30am 11.1 NW 10 13 1011.6 - 0.0 - - - - - - -
27/10:00am 10.7 WNW 9 13 1011.5 - 0.0 - - - - - - -
27/09:30am 10.2 NW 8 11 1011.5 - 0.0 - - - - - - -
27/09:00am 9.4 NW 8 12 1011.3 - 0.0 - - - - - - -
27/08:30am 9.0 NW 8 11 1011.0 - 0.0 - - - - - - -
27/08:00am 7.7 WNW 7 10 1010.9 - 0.0 - - - - - - -
27/07:30am 8.1 NW 7 10 1010.7 - 0.0 - - - - - - -
27/07:00am 8.3 NW 7 10 1010.5 - 0.0 - - - - - - -
27/06:30am 8.4 NW 8 10 1010.1 - 0.0 - - - - - - -
27/06:00am 8.1 WNW 7 9 1009.9 - 0.0 - - - - - - -
27/05:30am 8.5 NW 7 9 1009.4 - 0.0 - - - - - - -
27/05:00am 8.7 NW 4 7 1009.3 - 0.0 - - - - - - -
27/04:30am 9.4 WNW 7 9 1009.3 - 0.0 - - - - - - -
27/04:00am 9.3 W 7 9 1009.3 - 0.0 - - - - - - -
27/03:30am 8.8 W 6 9 1009.2 - 0.0 - - - - - - -
27/03:00am 9.6 WNW 10 14 1009.1 - 0.0 - - - - - - -
27/02:30am 9.8 WNW 10 14 1009.1 - 0.0 - - - - - - -
27/02:00am 9.7 WNW 11 15 1008.9 - 0.0 - - - - - - -
27/01:30am 9.7 WNW 9 13 1008.8 - 0.0 - - - - - - -
27/01:00am 10.1 WNW 7 14 1008.7 - 0.0 - - - - - - -
27/12:30am 9.7 NNW 7 10 1008.5 - 0.0 - - - - - - -
27/12:00am 9.4 N 5 8 1008.7 - 0.0 - - - - - - -
 
Date/Time
EST
Temp
°C
Wind Pressure Rain since
9am
mm
Weather Cloud Vis
km
Sea
Height
m
Swell
Dir  Spd
kts
Gust
kts
hPa Trend Height
m
Period
s
Dir
26/11:30pm 9.3 NNW 5 7 1008.8 - 0.0 - - - - - - -
26/11:00pm 9.8 NNW 7 10 1008.9 - 0.0 - - - - - - -
26/10:30pm 10.0 NNW 8 12 1008.9 - 0.0 - - - - - - -
26/10:00pm 9.7 NNW 9 13 1009.2 - 0.0 - - - - - - -
26/09:30pm 10.3 NNW 9 13 1009.2 - 0.0 - - - - - - -
26/09:00pm 9.4 NNW 7 10 1009.6 - 0.0 - - - - - - -
26/08:30pm 9.1 NNE 7 10 1009.8 - 0.0 - - - - - - -
26/08:00pm 9.6 N 5 9 1009.9 - 0.0 - - - - - - -
26/07:30pm 9.7 NNW 6 9 1010.0 - 0.0 - - - - - - -
26/07:00pm 10.0 NNW 6 9 1010.0 - 0.0 - - - - - - -
26/06:30pm 10.0 NW 5 7 1010.0 - 0.0 - - - - - - -
26/06:00pm 10.3 NW 6 9 1009.9 - 0.0 - - - - - - -
26/05:30pm 10.3 NW 5 8 1009.9 - 0.0 - - - - - - -
26/05:00pm 11.7 NW 4 8 1010.1 - 0.0 - - - - - - -
26/04:30pm 10.2 NNW 7 8 1010.1 - 0.0 - - - - - - -
26/04:00pm 11.8 NW 5 12 1010.2 - 0.0 - - - - - - -
26/03:30pm 12.0 NW 4 6 1010.3 - 0.0 - - - - - - -
26/03:00pm 13.5 NW 3 5 1010.4 - 0.0 - - - - - - -
26/02:30pm 13.4 NW 5 10 1010.6 - 0.0 - - - - - - -
26/02:00pm 13.8 NW 8 15 1010.8 - 0.0 - - - - - - -
26/01:30pm 13.2 NW 4 6 1011.3 - 0.0 - - - - - - -
26/01:00pm 13.3 NW 8 13 1011.7 - 0.0 - - - - - - -
26/12:30pm 14.0 NW 7 13 1011.9 - 0.0 - - - - - - -
26/12:00pm 12.9 NW 5 9 1012.7 - 0.0 - - - - - - -
26/11:30am 12.6 NW 7 11 1013.3 - 0.0 - - - - - - -
26/11:00am 12.6 NW 5 10 1013.9 - 0.0 - - - - - - -
26/10:30am 11.4 NNW 6 9 1014.3 - 0.0 - - - - - - -
26/10:00am 11.0 NNW 5 8 1014.5 - 0.0 - - - - - - -
26/09:30am 10.9 NNW 5 9 1014.5 - 0.0 - - - - - - -
26/09:00am 10.1 NNW 2 3 1014.8 - 0.0 - - - - - - -
26/08:30am 10.2 NW 6 9 1014.8 - 0.0 - - - - - - -
26/08:00am 9.8 NW 6 9 1014.8 - 0.0 - - - - - - -
26/07:30am 9.2 NW 5 9 1014.9 - 0.0 - - - - - - -
26/07:00am 9.2 NW 6 9 1015.0 - 0.0 - - - - - - -
26/06:30am 9.2 NW 10 13 1014.7 - 0.0 - - - - - - -
26/06:00am 9.4 WNW 10 14 1014.5 - 0.0 - - - - - - -
26/05:30am 8.5 WNW 3 6 1014.4 - 0.0 - - - - - - -
26/05:00am 7.4 WNW 3 4 1014.5 - 0.0 - - - - - - -
26/04:30am 7.7 WNW 3 4 1014.4 - 0.0 - - - - - - -
26/04:00am 8.4 NW 9 13 1014.4 - 0.0 - - - - - - -
26/03:30am 8.8 NW 9 13 1014.5 - 0.0 - - - - - - -
26/03:00am 9.0 NW 9 12 1014.8 - 0.0 - - - - - - -
26/02:30am 8.7 NW 9 13 1014.9 - 0.0 - - - - - - -
26/02:00am 8.9 NW 13 16 1014.8 - 0.0 - - - - - - -
26/01:30am 8.9 WNW 13 16 1014.9 - 0.0 - - - - - - -
26/01:00am 8.8 WNW 11 14 1015.3 - 0.0 - - - - - - -
26/12:30am 9.0 NW 10 13 1015.4 - 0.0 - - - - - - -
26/12:00am 8.6 NW 7 11 1015.8 - 0.0 - - - - - - -
 
Date/Time
EST
Temp
°C
Wind Pressure Rain since
9am
mm
Weather Cloud Vis
km
Sea
Height
m
Swell
Dir  Spd
kts
Gust
kts
hPa Trend Height
m
Period
s
Dir
25/11:30pm 8.6 NW 7 11 1015.7 - 0.0 - - - - - - -
25/11:00pm 8.7 NW 11 14 1015.7 - 0.0 - - - - - - -
25/10:30pm 8.5 NW 10 13 1015.9 - 0.0 - - - - - - -
25/10:00pm 8.6 NW 12 15 1016.1 - 0.0 - - - - - - -
25/09:30pm 8.6 NW 11 16 1016.2 - 0.0 - - - - - - -
25/09:00pm 8.7 WNW 12 16 1016.3 - 0.0 - - - - - - -
25/08:30pm 8.9 NW 12 16 1016.4 - 0.0 - - - - - - -
25/08:00pm 8.7 NW 11 15 1016.5 - 0.0 - - - - - - -
25/07:30pm 8.4 W 10 12 1016.6 - 0.0 - - - - - - -
25/07:00pm 8.2 W 9 11 1016.5 - 0.0 - - - - - - -
25/06:30pm 8.9 W 9 12 1016.5 - 0.0 - - - - - - -
25/06:00pm 8.9 NW 9 12 1016.5 - 0.0 - - - - - - -
25/05:30pm 8.7 NW 8 11 1016.4 - 0.0 - - - - - - -
25/05:00pm 8.4 W 7 9 1016.3 - 0.0 - - - - - - -
25/04:30pm 8.8 W 5 7 1016.3 - 0.0 - - - - - - -
25/04:00pm 8.9 WNW 6 9 1016.2 - 0.0 - - - - - - -
25/03:30pm 9.5 W 6 9 1016.2 - 0.0 - - - - - - -
25/03:00pm 10.0 W 10 13 1016.2 - 0.0 - - - - - - -
25/02:30pm 9.9 W 12 15 1016.2 - 0.0 - - - - - - -
25/02:00pm 9.6 W 16 19 1016.2 - 0.0 - - - - - - -
25/01:30pm 9.7 W 17 19 1016.3 - 0.0 - - - - - - -
25/01:00pm 9.4 W 16 19 1016.4 - 0.0 - - - - - - -
25/12:30pm 9.1 W 19 22 1016.5 - 0.0 - - - - - - -
25/12:00pm 8.9 W 17 22 1016.6 - 0.0 - - - - - - -
25/11:30am 8.6 W 12 15 1016.8 - 0.0 - - - - - - -
25/11:00am 8.1 W 11 14 1016.9 - 0.0 - - - - - - -
25/10:30am 7.6 W 10 15 1017.1 - 0.0 - - - - - - -
25/10:00am 6.6 W 10 13 1017.0 - 0.0 - - - - - - -
25/09:30am 6.3 W 11 15 1016.8 - 0.0 - - - - - - -
25/09:00am 5.7 W 11 14 1016.4 - 0.0 - - - - - - -
25/08:30am 5.0 W 10 12 1016.1 - 0.0 - - - - - - -
25/08:00am 6.3 W 17 21 1015.7 - 0.0 - - - - - - -
25/07:30am 6.4 W 17 20 1015.4 - 0.0 - - - - - - -
25/07:00am 6.4 W 18 21 1015.1 - 0.0 - - - - - - -
25/06:30am 6.3 W 19 22 1014.7 - 0.0 - - - - - - -
25/06:00am 6.4 W 19 24 1014.1 - 0.0 - - - - - - -
25/05:30am 6.7 WSW 21 26 1013.8 - 0.0 - - - - - - -
25/05:27am 6.5 W 19 26 1013.9 - 0.0 - - - - - - -
25/05:00am 5.1 W 9 16 1013.7 - 0.0 - - - - - - -
25/04:30am 4.5 NW 9 12 1013.3 - 0.0 - - - - - - -
25/04:00am 4.6 W 10 13 1013.2 - 0.0 - - - - - - -
25/03:30am 4.8 W 11 16 1012.9 - 0.0 - - - - - - -
25/03:00am 5.0 W 11 16 1012.6 - 0.0 - - - - - - -
25/02:30am 5.1 W 13 17 1012.2 - 0.0 - - - - - - -
25/02:00am 4.9 W 11 15 1011.9 - 0.0 - - - - - - -
25/01:30am 5.1 W 10 13 1011.5 - 0.0 - - - - - - -
25/01:00am 6.6 W 22 25 1010.9 - 0.0 - - - - - - -
25/12:30am 6.5 W 21 26 1010.7 - 0.0 - - - - - - -
25/12:00am 6.5 WSW 22 26 1010.4 - 0.0 - - - - - - -
 
Date/Time
EST
Temp
°C
Wind Pressure Rain since
9am
mm
Weather Cloud Vis
km
Sea
Height
m
Swell
Dir  Spd
kts
Gust
kts
hPa Trend Height
m
Period
s
Dir
24/11:30pm 6.4 WSW 19 23 1010.1 - 0.0 - - - - - - -

Other Formats:

Comma delimited format used in spreadsheet applications
http://www.bom.gov.au/fwo/IDT60701/IDT60701.94951.axf

JavaScript Object Notation format (JSON) in row-major order
http://www.bom.gov.au/fwo/IDT60701/IDT60701.94951.json